sensor_id;sensor_type;location;lat;lon;timestamp;temperature;humidity
8463;DHT22;4268;52.506;13.462;2022-09-14T00:00:51;15.00;99.90
8463;DHT22;4268;52.506;13.462;2022-09-14T00:03:17;16.20;99.90
8463;DHT22;4268;52.506;13.462;2022-09-14T00:05:43;15.00;99.90
8463;DHT22;4268;52.506;13.462;2022-09-14T00:08:10;15.00;99.90
8463;DHT22;4268;52.506;13.462;2022-09-14T00:10:43;15.00;99.90
8463;DHT22;4268;52.506;13.462;2022-09-14T00:13:10;14.90;99.90
8463;DHT22;4268;52.506;13.462;2022-09-14T00:15:37;15.00;99.90
8463;DHT22;4268;52.506;13.462;2022-09-14T00:18:03;15.00;99.90
8463;DHT22;4268;52.506;13.462;2022-09-14T00:20:30;15.00;99.90
8463;DHT22;4268;52.506;13.462;2022-09-14T00:22:56;15.00;99.90
8463;DHT22;4268;52.506;13.462;2022-09-14T00:25:22;14.90;99.90
8463;DHT22;4268;52.506;13.462;2022-09-14T00:27:48;14.90;99.90
8463;DHT22;4268;52.506;13.462;2022-09-14T00:30:13;14.90;99.90
8463;DHT22;4268;52.506;13.462;2022-09-14T00:32:39;14.90;99.90
8463;DHT22;4268;52.506;13.462;2022-09-14T00:35:04;14.90;99.90
8463;DHT22;4268;52.506;13.462;2022-09-14T00:37:30;14.80;99.90
8463;DHT22;4268;52.506;13.462;2022-09-14T00:39:56;14.80;99.90
8463;DHT22;4268;52.506;13.462;2022-09-14T00:42:21;14.70;99.90
8463;DHT22;4268;52.506;13.462;2022-09-14T00:47:14;14.70;99.90
8463;DHT22;4268;52.506;13.462;2022-09-14T00:49:42;14.70;99.90
8463;DHT22;4268;52.506;13.462;2022-09-14T00:54:34;14.60;99.90
8463;DHT22;4268;52.506;13.462;2022-09-14T00:57:02;14.60;99.90
8463;DHT22;4268;52.506;13.462;2022-09-14T00:59:30;14.70;99.90
8463;DHT22;4268;52.506;13.462;2022-09-14T01:01:57;14.70;99.90
8463;DHT22;4268;52.506;13.462;2022-09-14T01:04:22;14.70;99.90
8463;DHT22;4268;52.506;13.462;2022-09-14T01:10:09;14.60;99.90
8463;DHT22;4268;52.506;13.462;2022-09-14T01:21:05;14.50;99.90
8463;DHT22;4268;52.506;13.462;2022-09-14T01:24:35;14.50;99.90
8463;DHT22;4268;52.506;13.462;2022-09-14T01:32:08;14.40;99.90
8463;DHT22;4268;52.506;13.462;2022-09-14T01:34:48;14.30;99.90
8463;DHT22;4268;52.506;13.462;2022-09-14T01:37:32;14.30;99.90
8463;DHT22;4268;52.506;13.462;2022-09-14T01:40:29;14.30;99.90
8463;DHT22;4268;52.506;13.462;2022-09-14T01:43:19;14.30;99.90
8463;DHT22;4268;52.506;13.462;2022-09-14T01:45:49;14.20;99.90
8463;DHT22;4268;52.506;13.462;2022-09-14T01:48:19;14.20;99.90
8463;DHT22;4268;52.506;13.462;2022-09-14T01:50:49;14.20;99.90
8463;DHT22;4268;52.506;13.462;2022-09-14T01:59:12;14.20;99.90
8463;DHT22;4268;52.506;13.462;2022-09-14T02:01:43;14.20;99.90
8463;DHT22;4268;52.506;13.462;2022-09-14T02:04:14;14.20;99.90
8463;DHT22;4268;52.506;13.462;2022-09-14T02:06:48;14.10;99.90
8463;DHT22;4268;52.506;13.462;2022-09-14T02:09:18;14.00;99.90
8463;DHT22;4268;52.506;13.462;2022-09-14T02:11:46;14.10;99.90
8463;DHT22;4268;52.506;13.462;2022-09-14T02:14:12;14.10;99.90
8463;DHT22;4268;52.506;13.462;2022-09-14T02:16:37;14.10;99.90
8463;DHT22;4268;52.506;13.462;2022-09-14T02:19:04;14.10;99.90
8463;DHT22;4268;52.506;13.462;2022-09-14T02:21:31;14.10;99.90
8463;DHT22;4268;52.506;13.462;2022-09-14T02:23:58;14.10;99.90
8463;DHT22;4268;52.506;13.462;2022-09-14T02:26:25;14.00;99.90
8463;DHT22;4268;52.506;13.462;2022-09-14T02:28:51;14.00;99.90
8463;DHT22;4268;52.506;13.462;2022-09-14T02:40:34;14.00;99.90
8463;DHT22;4268;52.506;13.462;2022-09-14T02:43:17;14.00;99.90
8463;DHT22;4268;52.506;13.462;2022-09-14T02:46:12;13.90;99.90
8463;DHT22;4268;52.506;13.462;2022-09-14T02:49:03;13.90;99.90
8463;DHT22;4268;52.506;13.462;2022-09-14T02:51:35;13.90;99.90
8463;DHT22;4268;52.506;13.462;2022-09-14T02:54:19;13.90;99.90
8463;DHT22;4268;52.506;13.462;2022-09-14T02:56:48;13.90;99.90
8463;DHT22;4268;52.506;13.462;2022-09-14T02:59:13;13.90;99.90
8463;DHT22;4268;52.506;13.462;2022-09-14T03:01:39;13.90;99.90
8463;DHT22;4268;52.506;13.462;2022-09-14T03:04:04;13.90;99.90
8463;DHT22;4268;52.506;13.462;2022-09-14T03:06:30;13.80;99.90
8463;DHT22;4268;52.506;13.462;2022-09-14T03:08:56;13.90;99.90
8463;DHT22;4268;52.506;13.462;2022-09-14T03:11:21;13.80;99.90
8463;DHT22;4268;52.506;13.462;2022-09-14T03:13:47;13.80;99.90
8463;DHT22;4268;52.506;13.462;2022-09-14T03:16:14;13.70;99.90
8463;DHT22;4268;52.506;13.462;2022-09-14T03:18:40;13.60;99.90
8463;DHT22;4268;52.506;13.462;2022-09-14T03:21:12;13.80;99.90
8463;DHT22;4268;52.506;13.462;2022-09-14T03:23:43;13.80;99.90
8463;DHT22;4268;52.506;13.462;2022-09-14T03:26:17;13.80;99.90
8463;DHT22;4268;52.506;13.462;2022-09-14T03:28:43;13.70;99.90
8463;DHT22;4268;52.506;13.462;2022-09-14T03:31:10;13.70;99.90
8463;DHT22;4268;52.506;13.462;2022-09-14T03:33:36;13.70;99.90
8463;DHT22;4268;52.506;13.462;2022-09-14T03:36:09;13.70;99.90
8463;DHT22;4268;52.506;13.462;2022-09-14T03:38:35;13.70;99.90
8463;DHT22;4268;52.506;13.462;2022-09-14T03:41:07;13.70;99.90
8463;DHT22;4268;52.506;13.462;2022-09-14T03:43:32;13.70;99.90
8463;DHT22;4268;52.506;13.462;2022-09-14T03:46:13;13.70;99.90
8463;DHT22;4268;52.506;13.462;2022-09-14T03:48:39;13.70;99.90
8463;DHT22;4268;52.506;13.462;2022-09-14T03:51:06;13.70;99.90
8463;DHT22;4268;52.506;13.462;2022-09-14T03:53:32;13.70;99.90
8463;DHT22;4268;52.506;13.462;2022-09-14T03:55:58;13.70;99.90
8463;DHT22;4268;52.506;13.462;2022-09-14T03:58:24;13.70;99.90
8463;DHT22;4268;52.506;13.462;2022-09-14T04:00:50;13.70;99.90
8463;DHT22;4268;52.506;13.462;2022-09-14T04:03:16;13.70;99.90
8463;DHT22;4268;52.506;13.462;2022-09-14T04:05:42;13.70;99.90
8463;DHT22;4268;52.506;13.462;2022-09-14T04:08:09;13.70;99.90
8463;DHT22;4268;52.506;13.462;2022-09-14T04:10:38;13.70;99.90
8463;DHT22;4268;52.506;13.462;2022-09-14T04:13:03;13.70;99.90
8463;DHT22;4268;52.506;13.462;2022-09-14T04:15:28;13.70;99.90
8463;DHT22;4268;52.506;13.462;2022-09-14T04:17:54;13.70;99.90
8463;DHT22;4268;52.506;13.462;2022-09-14T04:20:19;13.70;99.90
8463;DHT22;4268;52.506;13.462;2022-09-14T04:22:45;13.70;99.90
8463;DHT22;4268;52.506;13.462;2022-09-14T04:25:11;13.70;99.90
8463;DHT22;4268;52.506;13.462;2022-09-14T04:27:37;13.60;99.90
8463;DHT22;4268;52.506;13.462;2022-09-14T04:30:04;13.60;99.90
8463;DHT22;4268;52.506;13.462;2022-09-14T04:32:30;13.60;99.90
8463;DHT22;4268;52.506;13.462;2022-09-14T04:34:56;13.60;99.90
8463;DHT22;4268;52.506;13.462;2022-09-14T04:37:21;13.60;99.90
8463;DHT22;4268;52.506;13.462;2022-09-14T04:39:46;13.60;99.90
8463;DHT22;4268;52.506;13.462;2022-09-14T04:42:12;13.70;99.90
8463;DHT22;4268;52.506;13.462;2022-09-14T04:44:37;13.70;99.90
8463;DHT22;4268;52.506;13.462;2022-09-14T04:47:03;13.70;99.90
8463;DHT22;4268;52.506;13.462;2022-09-14T04:49:28;13.70;99.90
8463;DHT22;4268;52.506;13.462;2022-09-14T04:51:54;13.80;99.90
8463;DHT22;4268;52.506;13.462;2022-09-14T04:54:19;13.80;99.90
8463;DHT22;4268;52.506;13.462;2022-09-14T04:56:45;13.80;99.90
8463;DHT22;4268;52.506;13.462;2022-09-14T04:59:11;13.80;99.90
8463;DHT22;4268;52.506;13.462;2022-09-14T05:01:44;13.90;99.90
8463;DHT22;4268;52.506;13.462;2022-09-14T05:04:11;13.90;99.90
8463;DHT22;4268;52.506;13.462;2022-09-14T05:06:39;13.90;99.90
8463;DHT22;4268;52.506;13.462;2022-09-14T05:09:16;13.90;99.90
8463;DHT22;4268;52.506;13.462;2022-09-14T05:11:42;13.90;99.90
8463;DHT22;4268;52.506;13.462;2022-09-14T05:14:09;13.90;99.90
8463;DHT22;4268;52.506;13.462;2022-09-14T05:16:37;13.90;99.90
8463;DHT22;4268;52.506;13.462;2022-09-14T05:19:05;13.90;99.90
8463;DHT22;4268;52.506;13.462;2022-09-14T05:21:32;14.00;99.90
8463;DHT22;4268;52.506;13.462;2022-09-14T05:24:04;14.00;99.90
8463;DHT22;4268;52.506;13.462;2022-09-14T05:26:30;14.00;99.90
8463;DHT22;4268;52.506;13.462;2022-09-14T05:28:59;14.40;99.90
8463;DHT22;4268;52.506;13.462;2022-09-14T05:31:26;14.10;99.90
8463;DHT22;4268;52.506;13.462;2022-09-14T05:33:52;14.20;99.90
8463;DHT22;4268;52.506;13.462;2022-09-14T05:36:18;14.30;99.90
8463;DHT22;4268;52.506;13.462;2022-09-14T05:38:44;14.30;99.90
8463;DHT22;4268;52.506;13.462;2022-09-14T05:41:12;14.30;99.90
8463;DHT22;4268;52.506;13.462;2022-09-14T05:43:38;14.30;99.90
8463;DHT22;4268;52.506;13.462;2022-09-14T05:46:06;14.40;99.90
8463;DHT22;4268;52.506;13.462;2022-09-14T05:48:33;14.30;99.90
8463;DHT22;4268;52.506;13.462;2022-09-14T05:51:00;14.40;99.90
8463;DHT22;4268;52.506;13.462;2022-09-14T05:53:26;14.50;99.90
8463;DHT22;4268;52.506;13.462;2022-09-14T05:56:05;14.50;99.90
8463;DHT22;4268;52.506;13.462;2022-09-14T05:58:31;14.60;99.90
8463;DHT22;4268;52.506;13.462;2022-09-14T06:00:57;14.60;99.90
8463;DHT22;4268;52.506;13.462;2022-09-14T06:03:23;14.60;99.90
8463;DHT22;4268;52.506;13.462;2022-09-14T06:05:49;14.60;99.90
8463;DHT22;4268;52.506;13.462;2022-09-14T06:08:14;14.60;99.90
8463;DHT22;4268;52.506;13.462;2022-09-14T06:10:40;14.70;99.90
8463;DHT22;4268;52.506;13.462;2022-09-14T06:13:05;14.70;99.90
8463;DHT22;4268;52.506;13.462;2022-09-14T06:15:33;14.80;99.90
8463;DHT22;4268;52.506;13.462;2022-09-14T06:17:58;14.80;99.90
8463;DHT22;4268;52.506;13.462;2022-09-14T06:20:24;15.00;99.90
8463;DHT22;4268;52.506;13.462;2022-09-14T06:22:50;15.10;99.90
8463;DHT22;4268;52.506;13.462;2022-09-14T06:25:15;15.20;99.90
8463;DHT22;4268;52.506;13.462;2022-09-14T06:27:41;15.70;99.90
8463;DHT22;4268;52.506;13.462;2022-09-14T06:30:07;15.90;99.90
8463;DHT22;4268;52.506;13.462;2022-09-14T06:32:32;16.10;99.90
8463;DHT22;4268;52.506;13.462;2022-09-14T06:34:58;16.30;99.90
8463;DHT22;4268;52.506;13.462;2022-09-14T06:37:23;16.50;99.90
8463;DHT22;4268;52.506;13.462;2022-09-14T06:39:49;16.70;99.90
8463;DHT22;4268;52.506;13.462;2022-09-14T06:42:14;17.30;99.90
8463;DHT22;4268;52.506;13.462;2022-09-14T06:44:40;17.80;99.90
8463;DHT22;4268;52.506;13.462;2022-09-14T06:47:06;18.30;99.90
8463;DHT22;4268;52.506;13.462;2022-09-14T06:49:31;19.20;99.90
8463;DHT22;4268;52.506;13.462;2022-09-14T06:51:57;20.10;99.90
8463;DHT22;4268;52.506;13.462;2022-09-14T06:54:24;20.40;99.90
8463;DHT22;4268;52.506;13.462;2022-09-14T06:56:50;20.50;99.90
8463;DHT22;4268;52.506;13.462;2022-09-14T06:59:16;20.40;99.90
8463;DHT22;4268;52.506;13.462;2022-09-14T07:01:43;20.00;99.90
8463;DHT22;4268;52.506;13.462;2022-09-14T07:04:14;20.00;99.90
8463;DHT22;4268;52.506;13.462;2022-09-14T07:06:44;19.90;99.90
8463;DHT22;4268;52.506;13.462;2022-09-14T07:09:10;20.20;99.90
8463;DHT22;4268;52.506;13.462;2022-09-14T07:11:36;20.80;99.90
8463;DHT22;4268;52.506;13.462;2022-09-14T07:14:02;21.10;99.90
8463;DHT22;4268;52.506;13.462;2022-09-14T07:16:30;20.60;99.90
8463;DHT22;4268;52.506;13.462;2022-09-14T07:19:00;20.00;99.90
8463;DHT22;4268;52.506;13.462;2022-09-14T07:21:29;19.50;99.90
8463;DHT22;4268;52.506;13.462;2022-09-14T07:23:55;19.10;99.90
8463;DHT22;4268;52.506;13.462;2022-09-14T07:26:30;18.60;99.90
8463;DHT22;4268;52.506;13.462;2022-09-14T07:29:01;18.40;99.90
8463;DHT22;4268;52.506;13.462;2022-09-14T07:31:34;18.40;99.90
8463;DHT22;4268;52.506;13.462;2022-09-14T07:34:01;18.70;99.90
8463;DHT22;4268;52.506;13.462;2022-09-14T07:36:28;19.00;99.90
8463;DHT22;4268;52.506;13.462;2022-09-14T07:38:54;19.40;99.90
8463;DHT22;4268;52.506;13.462;2022-09-14T07:41:25;19.90;99.90
8463;DHT22;4268;52.506;13.462;2022-09-14T07:43:52;20.00;99.90
8463;DHT22;4268;52.506;13.462;2022-09-14T07:46:19;20.20;99.90
8463;DHT22;4268;52.506;13.462;2022-09-14T07:48:45;20.70;99.90
8463;DHT22;4268;52.506;13.462;2022-09-14T07:51:11;21.40;99.90
8463;DHT22;4268;52.506;13.462;2022-09-14T07:53:38;22.10;99.90
8463;DHT22;4268;52.506;13.462;2022-09-14T07:56:05;23.10;99.10
8463;DHT22;4268;52.506;13.462;2022-09-14T07:58:32;23.90;96.80
8463;DHT22;4268;52.506;13.462;2022-09-14T08:01:03;23.70;95.60
8463;DHT22;4268;52.506;13.462;2022-09-14T08:03:29;23.40;95.50
8463;DHT22;4268;52.506;13.462;2022-09-14T08:06:03;22.90;95.10
8463;DHT22;4268;52.506;13.462;2022-09-14T08:08:31;22.30;95.90
8463;DHT22;4268;52.506;13.462;2022-09-14T08:13:30;21.30;97.60
8463;DHT22;4268;52.506;13.462;2022-09-14T08:15:56;21.00;98.60
8463;DHT22;4268;52.506;13.462;2022-09-14T08:18:25;20.70;98.90
8463;DHT22;4268;52.506;13.462;2022-09-14T08:20:51;20.50;99.00
8463;DHT22;4268;52.506;13.462;2022-09-14T08:23:17;20.30;98.90
8463;DHT22;4268;52.506;13.462;2022-09-14T08:25:43;20.20;99.20
8463;DHT22;4268;52.506;13.462;2022-09-14T08:28:08;20.10;99.30
8463;DHT22;4268;52.506;13.462;2022-09-14T08:30:34;20.00;99.40
8463;DHT22;4268;52.506;13.462;2022-09-14T08:32:59;19.90;99.90
8463;DHT22;4268;52.506;13.462;2022-09-14T08:35:25;20.00;99.70
8463;DHT22;4268;52.506;13.462;2022-09-14T08:37:50;20.00;99.50
8463;DHT22;4268;52.506;13.462;2022-09-14T08:40:16;20.00;99.80
8463;DHT22;4268;52.506;13.462;2022-09-14T08:42:42;20.00;99.30
8463;DHT22;4268;52.506;13.462;2022-09-14T08:45:10;19.90;98.50
8463;DHT22;4268;52.506;13.462;2022-09-14T08:47:39;19.90;98.30
8463;DHT22;4268;52.506;13.462;2022-09-14T08:52:46;19.80;98.20
8463;DHT22;4268;52.506;13.462;2022-09-14T08:57:55;19.60;97.80
8463;DHT22;4268;52.506;13.462;2022-09-14T09:00:25;19.50;97.00
8463;DHT22;4268;52.506;13.462;2022-09-14T09:03:17;19.40;96.90
8463;DHT22;4268;52.506;13.462;2022-09-14T09:06:23;19.40;97.60
8463;DHT22;4268;52.506;13.462;2022-09-14T09:09:18;19.50;97.80
8463;DHT22;4268;52.506;13.462;2022-09-14T09:11:50;19.40;96.90
8463;DHT22;4268;52.506;13.462;2022-09-14T09:17:02;19.30;97.40
8463;DHT22;4268;52.506;13.462;2022-09-14T09:19:36;19.30;97.80
8463;DHT22;4268;52.506;13.462;2022-09-14T09:22:05;19.40;97.50
8463;DHT22;4268;52.506;13.462;2022-09-14T09:24:43;19.20;97.50
8463;DHT22;4268;52.506;13.462;2022-09-14T09:27:11;19.30;97.80
8463;DHT22;4268;52.506;13.462;2022-09-14T09:29:37;19.30;97.70
8463;DHT22;4268;52.506;13.462;2022-09-14T09:32:04;19.30;97.80
8463;DHT22;4268;52.506;13.462;2022-09-14T09:34:30;19.30;97.90
8463;DHT22;4268;52.506;13.462;2022-09-14T09:36:57;19.40;97.90
8463;DHT22;4268;52.506;13.462;2022-09-14T09:39:25;19.30;97.90
8463;DHT22;4268;52.506;13.462;2022-09-14T09:42:06;19.30;97.80
8463;DHT22;4268;52.506;13.462;2022-09-14T09:47:40;19.50;97.80
8463;DHT22;4268;52.506;13.462;2022-09-14T09:52:38;19.70;96.60
8463;DHT22;4268;52.506;13.462;2022-09-14T09:55:20;19.70;96.90
8463;DHT22;4268;52.506;13.462;2022-09-14T09:57:47;19.70;96.90
8463;DHT22;4268;52.506;13.462;2022-09-14T10:02:39;19.90;96.10
8463;DHT22;4268;52.506;13.462;2022-09-14T10:10:18;19.90;95.90
8463;DHT22;4268;52.506;13.462;2022-09-14T10:12:49;20.00;95.90
8463;DHT22;4268;52.506;13.462;2022-09-14T10:15:23;19.90;95.60
8463;DHT22;4268;52.506;13.462;2022-09-14T10:20:38;19.90;96.00
8463;DHT22;4268;52.506;13.462;2022-09-14T10:28:26;19.80;95.20
8463;DHT22;4268;52.506;13.462;2022-09-14T10:31:00;19.80;94.80
8463;DHT22;4268;52.506;13.462;2022-09-14T10:33:28;19.80;95.20
8463;DHT22;4268;52.506;13.462;2022-09-14T10:38:50;20.20;95.10
8463;DHT22;4268;52.506;13.462;2022-09-14T10:41:34;20.30;94.40
8463;DHT22;4268;52.506;13.462;2022-09-14T10:47:11;20.40;94.40
8463;DHT22;4268;52.506;13.462;2022-09-14T10:52:43;20.70;93.60
8463;DHT22;4268;52.506;13.462;2022-09-14T10:55:23;20.60;93.30
8463;DHT22;4268;52.506;13.462;2022-09-14T11:01:23;20.70;93.30
8463;DHT22;4268;52.506;13.462;2022-09-14T11:09:17;21.10;93.10
8463;DHT22;4268;52.506;13.462;2022-09-14T11:12:05;21.40;92.80
8463;DHT22;4268;52.506;13.462;2022-09-14T11:17:25;21.40;92.70
8463;DHT22;4268;52.506;13.462;2022-09-14T11:23:02;21.10;92.30
8463;DHT22;4268;52.506;13.462;2022-09-14T11:28:32;20.80;93.40
8463;DHT22;4268;52.506;13.462;2022-09-14T11:31:19;20.80;93.50
8463;DHT22;4268;52.506;13.462;2022-09-14T11:37:08;20.70;93.30
8463;DHT22;4268;52.506;13.462;2022-09-14T11:39:54;20.60;93.80
8463;DHT22;4268;52.506;13.462;2022-09-14T11:42:42;20.60;94.00
8463;DHT22;4268;52.506;13.462;2022-09-14T11:45:28;20.70;93.50
8463;DHT22;4268;52.506;13.462;2022-09-14T11:50:44;20.70;93.10
8463;DHT22;4268;52.506;13.462;2022-09-14T11:53:13;20.70;93.30
8463;DHT22;4268;52.506;13.462;2022-09-14T11:55:46;20.60;93.00
8463;DHT22;4268;52.506;13.462;2022-09-14T11:58:21;20.80;92.90
8463;DHT22;4268;52.506;13.462;2022-09-14T12:04:09;20.80;92.80
8463;DHT22;4268;52.506;13.462;2022-09-14T12:11:58;20.60;92.80
8463;DHT22;4268;52.506;13.462;2022-09-14T12:17:14;20.40;93.50
8463;DHT22;4268;52.506;13.462;2022-09-14T12:19:42;20.30;93.30
8463;DHT22;4268;52.506;13.462;2022-09-14T12:22:35;20.30;93.70
8463;DHT22;4268;52.506;13.462;2022-09-14T12:25:13;20.30;93.40
8463;DHT22;4268;52.506;13.462;2022-09-14T12:27:41;20.40;93.50
8463;DHT22;4268;52.506;13.462;2022-09-14T12:30:33;20.40;93.50
8463;DHT22;4268;52.506;13.462;2022-09-14T12:32:59;20.40;93.60
8463;DHT22;4268;52.506;13.462;2022-09-14T12:40:58;20.50;93.40
8463;DHT22;4268;52.506;13.462;2022-09-14T12:46:30;20.50;93.60
8463;DHT22;4268;52.506;13.462;2022-09-14T12:49:02;20.50;93.70
8463;DHT22;4268;52.506;13.462;2022-09-14T12:51:46;20.50;94.20
8463;DHT22;4268;52.506;13.462;2022-09-14T12:57:14;20.50;93.90
8463;DHT22;4268;52.506;13.462;2022-09-14T13:05:19;20.80;93.70
8463;DHT22;4268;52.506;13.462;2022-09-14T13:07:47;20.90;93.70
8463;DHT22;4268;52.506;13.462;2022-09-14T13:10:26;21.10;93.90
8463;DHT22;4268;52.506;13.462;2022-09-14T13:12:55;21.20;93.70
8463;DHT22;4268;52.506;13.462;2022-09-14T13:15:23;21.10;93.10
8463;DHT22;4268;52.506;13.462;2022-09-14T13:17:55;21.00;93.00
8463;DHT22;4268;52.506;13.462;2022-09-14T13:20:21;20.90;93.50
8463;DHT22;4268;52.506;13.462;2022-09-14T13:22:46;20.70;93.50
8463;DHT22;4268;52.506;13.462;2022-09-14T13:25:29;20.30;94.20
8463;DHT22;4268;52.506;13.462;2022-09-14T13:27:59;20.10;94.20
8463;DHT22;4268;52.506;13.462;2022-09-14T13:30:25;20.00;94.40
8463;DHT22;4268;52.506;13.462;2022-09-14T13:32:54;20.00;94.30
8463;DHT22;4268;52.506;13.462;2022-09-14T13:35:42;20.10;94.40
8463;DHT22;4268;52.506;13.462;2022-09-14T13:38:16;20.10;94.50
8463;DHT22;4268;52.506;13.462;2022-09-14T13:40:43;20.20;94.70
8463;DHT22;4268;52.506;13.462;2022-09-14T13:43:10;20.20;94.20
8463;DHT22;4268;52.506;13.462;2022-09-14T13:45:35;20.20;94.50
8463;DHT22;4268;52.506;13.462;2022-09-14T13:48:03;20.30;94.80
8463;DHT22;4268;52.506;13.462;2022-09-14T13:50:29;20.20;94.70
8463;DHT22;4268;52.506;13.462;2022-09-14T13:52:54;20.20;94.50
8463;DHT22;4268;52.506;13.462;2022-09-14T13:58:22;20.10;94.70
8463;DHT22;4268;52.506;13.462;2022-09-14T14:00:55;20.10;94.60
8463;DHT22;4268;52.506;13.462;2022-09-14T14:03:28;20.00;94.70
8463;DHT22;4268;52.506;13.462;2022-09-14T14:05:54;20.00;94.60
8463;DHT22;4268;52.506;13.462;2022-09-14T14:08:33;19.90;94.80
8463;DHT22;4268;52.506;13.462;2022-09-14T14:11:01;19.90;94.90
8463;DHT22;4268;52.506;13.462;2022-09-14T14:13:29;20.30;95.30
8463;DHT22;4268;52.506;13.462;2022-09-14T14:18:47;19.90;94.80
8463;DHT22;4268;52.506;13.462;2022-09-14T14:24:24;19.80;94.70
8463;DHT22;4268;52.506;13.462;2022-09-14T14:26:53;19.80;94.70
8463;DHT22;4268;52.506;13.462;2022-09-14T14:29:19;19.70;94.60
8463;DHT22;4268;52.506;13.462;2022-09-14T14:31:45;19.60;94.60
8463;DHT22;4268;52.506;13.462;2022-09-14T14:34:20;19.60;94.50
8463;DHT22;4268;52.506;13.462;2022-09-14T14:36:45;19.50;94.40
8463;DHT22;4268;52.506;13.462;2022-09-14T14:39:14;19.40;94.60
8463;DHT22;4268;52.506;13.462;2022-09-14T14:41:40;19.40;94.60
8463;DHT22;4268;52.506;13.462;2022-09-14T14:44:10;19.40;94.60
8463;DHT22;4268;52.506;13.462;2022-09-14T14:46:37;19.30;94.70
8463;DHT22;4268;52.506;13.462;2022-09-14T14:49:04;19.30;95.00
8463;DHT22;4268;52.506;13.462;2022-09-14T14:51:30;19.30;95.40
8463;DHT22;4268;52.506;13.462;2022-09-14T14:53:55;19.20;95.70
8463;DHT22;4268;52.506;13.462;2022-09-14T14:56:21;19.20;95.50
8463;DHT22;4268;52.506;13.462;2022-09-14T14:58:47;19.10;95.40
8463;DHT22;4268;52.506;13.462;2022-09-14T15:01:13;19.00;95.10
8463;DHT22;4268;52.506;13.462;2022-09-14T15:03:38;19.00;95.20
8463;DHT22;4268;52.506;13.462;2022-09-14T15:06:12;19.00;95.30
8463;DHT22;4268;52.506;13.462;2022-09-14T15:08:39;18.90;95.30
8463;DHT22;4268;52.506;13.462;2022-09-14T15:11:04;19.00;95.60
8463;DHT22;4268;52.506;13.462;2022-09-14T15:13:30;18.90;95.30
8463;DHT22;4268;52.506;13.462;2022-09-14T15:15:55;18.80;95.60
8463;DHT22;4268;52.506;13.462;2022-09-14T15:18:21;18.80;95.40
8463;DHT22;4268;52.506;13.462;2022-09-14T15:20:46;18.80;95.50
8463;DHT22;4268;52.506;13.462;2022-09-14T15:23:12;18.80;95.70
8463;DHT22;4268;52.506;13.462;2022-09-14T15:25:38;18.70;95.70
8463;DHT22;4268;52.506;13.462;2022-09-14T15:28:04;18.70;95.70
8463;DHT22;4268;52.506;13.462;2022-09-14T15:30:29;18.60;95.70
8463;DHT22;4268;52.506;13.462;2022-09-14T15:32:55;18.60;95.60
8463;DHT22;4268;52.506;13.462;2022-09-14T15:35:20;18.60;95.60
8463;DHT22;4268;52.506;13.462;2022-09-14T15:37:46;18.50;95.50
8463;DHT22;4268;52.506;13.462;2022-09-14T15:40:12;18.50;95.50
8463;DHT22;4268;52.506;13.462;2022-09-14T15:42:38;18.50;95.60
8463;DHT22;4268;52.506;13.462;2022-09-14T15:45:04;18.50;95.70
8463;DHT22;4268;52.506;13.462;2022-09-14T15:47:29;18.40;95.60
8463;DHT22;4268;52.506;13.462;2022-09-14T15:49:55;18.40;95.50
8463;DHT22;4268;52.506;13.462;2022-09-14T15:52:20;18.40;95.70
8463;DHT22;4268;52.506;13.462;2022-09-14T15:54:46;18.40;95.80
8463;DHT22;4268;52.506;13.462;2022-09-14T15:57:12;18.40;95.80
8463;DHT22;4268;52.506;13.462;2022-09-14T15:59:38;18.40;95.80
8463;DHT22;4268;52.506;13.462;2022-09-14T16:02:04;18.40;95.80
8463;DHT22;4268;52.506;13.462;2022-09-14T16:04:37;18.30;95.40
8463;DHT22;4268;52.506;13.462;2022-09-14T16:07:04;18.30;95.60
8463;DHT22;4268;52.506;13.462;2022-09-14T16:09:34;18.30;95.50
8463;DHT22;4268;52.506;13.462;2022-09-14T16:11:59;18.20;95.60
8463;DHT22;4268;52.506;13.462;2022-09-14T16:14:25;18.20;95.70
8463;DHT22;4268;52.506;13.462;2022-09-14T16:16:50;18.20;95.60
8463;DHT22;4268;52.506;13.462;2022-09-14T16:19:16;18.20;95.60
8463;DHT22;4268;52.506;13.462;2022-09-14T16:21:42;18.20;95.70
8463;DHT22;4268;52.506;13.462;2022-09-14T16:24:11;18.10;95.80
8463;DHT22;4268;52.506;13.462;2022-09-14T16:26:37;18.00;95.80
8463;DHT22;4268;52.506;13.462;2022-09-14T16:29:05;18.10;96.10
8463;DHT22;4268;52.506;13.462;2022-09-14T16:31:35;18.10;96.00
8463;DHT22;4268;52.506;13.462;2022-09-14T16:34:05;18.00;96.00
8463;DHT22;4268;52.506;13.462;2022-09-14T16:36:33;18.00;96.10
8463;DHT22;4268;52.506;13.462;2022-09-14T16:39:02;17.90;96.10
8463;DHT22;4268;52.506;13.462;2022-09-14T16:41:28;17.80;96.00
8463;DHT22;4268;52.506;13.462;2022-09-14T16:43:59;17.90;96.30
8463;DHT22;4268;52.506;13.462;2022-09-14T16:46:26;17.80;96.40
8463;DHT22;4268;52.506;13.462;2022-09-14T16:48:52;17.80;96.60
8463;DHT22;4268;52.506;13.462;2022-09-14T16:51:20;17.70;96.60
8463;DHT22;4268;52.506;13.462;2022-09-14T16:53:47;17.70;96.70
8463;DHT22;4268;52.506;13.462;2022-09-14T16:58:44;17.70;96.90
8463;DHT22;4268;52.506;13.462;2022-09-14T17:01:18;17.60;96.90
8463;DHT22;4268;52.506;13.462;2022-09-14T17:03:46;17.60;97.00
8463;DHT22;4268;52.506;13.462;2022-09-14T17:06:14;17.60;96.80
8463;DHT22;4268;52.506;13.462;2022-09-14T17:08:41;17.60;97.10
8463;DHT22;4268;52.506;13.462;2022-09-14T17:11:07;17.50;97.20
8463;DHT22;4268;52.506;13.462;2022-09-14T17:13:34;17.50;97.50
8463;DHT22;4268;52.506;13.462;2022-09-14T17:16:05;17.50;97.50
8463;DHT22;4268;52.506;13.462;2022-09-14T17:18:32;17.50;97.70
8463;DHT22;4268;52.506;13.462;2022-09-14T17:21:00;17.40;97.70
8463;DHT22;4268;52.506;13.462;2022-09-14T17:23:26;17.40;97.90
8463;DHT22;4268;52.506;13.462;2022-09-14T17:25:52;17.40;97.70
8463;DHT22;4268;52.506;13.462;2022-09-14T17:28:23;17.40;97.70
8463;DHT22;4268;52.506;13.462;2022-09-14T17:30:50;17.30;97.80
8463;DHT22;4268;52.506;13.462;2022-09-14T17:33:17;17.30;97.40
8463;DHT22;4268;52.506;13.462;2022-09-14T17:35:47;17.30;97.40
8463;DHT22;4268;52.506;13.462;2022-09-14T17:38:13;17.30;97.60
8463;DHT22;4268;52.506;13.462;2022-09-14T17:40:38;17.20;97.80
8463;DHT22;4268;52.506;13.462;2022-09-14T17:43:04;17.30;98.00
8463;DHT22;4268;52.506;13.462;2022-09-14T17:45:29;17.20;97.90
8463;DHT22;4268;52.506;13.462;2022-09-14T17:47:55;17.60;98.10
8463;DHT22;4268;52.506;13.462;2022-09-14T17:50:20;17.20;98.00
8463;DHT22;4268;52.506;13.462;2022-09-14T17:52:48;17.10;98.20
8463;DHT22;4268;52.506;13.462;2022-09-14T17:55:14;17.40;98.40
8463;DHT22;4268;52.506;13.462;2022-09-14T17:57:40;17.10;98.50
8463;DHT22;4268;52.506;13.462;2022-09-14T18:00:06;17.10;98.60
8463;DHT22;4268;52.506;13.462;2022-09-14T18:02:32;17.10;98.60
8463;DHT22;4268;52.506;13.462;2022-09-14T18:04:57;17.10;98.80
8463;DHT22;4268;52.506;13.462;2022-09-14T18:07:24;17.10;98.70
8463;DHT22;4268;52.506;13.462;2022-09-14T18:09:50;17.00;98.90
8463;DHT22;4268;52.506;13.462;2022-09-14T18:12:16;17.00;99.20
8463;DHT22;4268;52.506;13.462;2022-09-14T18:14:42;17.80;99.70
8463;DHT22;4268;52.506;13.462;2022-09-14T18:17:08;17.00;99.60